createdAt,value
2023-05-22T00:01:38.185Z,14.65
2023-05-22T00:04:08.574Z,14.23
2023-05-22T00:06:38.558Z,13.30
2023-05-22T00:09:11.176Z,14.27
2023-05-22T00:11:41.252Z,15.35
2023-05-22T00:14:13.765Z,13.93
2023-05-22T00:16:45.909Z,14.43
2023-05-22T00:19:17.379Z,15.15
2023-05-22T00:21:47.886Z,14.07
2023-05-22T00:24:20.483Z,14.23
2023-05-22T00:26:50.431Z,14.25
2023-05-22T00:29:20.347Z,14.48
2023-05-22T00:31:50.565Z,14.80
2023-05-22T00:34:20.635Z,14.30
2023-05-22T00:36:50.557Z,14.80
2023-05-22T00:39:23.093Z,14.15
2023-05-22T00:41:53.092Z,14.65
2023-05-22T00:44:23.195Z,14.45
2023-05-22T00:46:54.108Z,14.95
2023-05-22T00:49:24.289Z,14.43
2023-05-22T00:51:54.417Z,15.07
2023-05-22T00:54:27.134Z,14.85
2023-05-22T00:56:57.472Z,15.68
2023-05-22T00:59:27.980Z,15.23
2023-05-22T01:01:58.657Z,14.60
2023-05-22T01:04:32.744Z,15.05
2023-05-22T01:07:03.252Z,14.93
2023-05-22T01:09:36.032Z,14.63
2023-05-22T01:12:14.743Z,14.77
2023-05-22T01:14:50.237Z,14.50
2023-05-22T01:17:26.870Z,15.95
2023-05-22T01:20:07.488Z,14.57
2023-05-22T01:23:15.307Z,15.02
2023-05-22T01:26:15.238Z,14.98
2023-05-22T01:29:14.776Z,15.50
2023-05-22T01:31:50.271Z,15.18
2023-05-22T01:34:21.052Z,15.25
2023-05-22T01:36:53.674Z,15.60
2023-05-22T01:39:24.783Z,15.38
2023-05-22T01:41:55.017Z,18.10
2023-05-22T01:44:25.384Z,17.67
2023-05-22T01:47:00.655Z,15.93
2023-05-22T01:49:31.839Z,15.93
2023-05-22T01:52:10.131Z,15.70
2023-05-22T01:54:46.444Z,15.43
2023-05-22T01:57:22.192Z,14.90
2023-05-22T01:59:57.238Z,15.85
2023-05-22T02:02:31.143Z,15.48
2023-05-22T02:05:03.996Z,14.82
2023-05-22T02:07:36.180Z,16.80
2023-05-22T02:10:08.662Z,16.25
2023-05-22T02:12:38.842Z,16.10
2023-05-22T02:15:11.707Z,15.48
2023-05-22T02:17:44.495Z,16.05
2023-05-22T02:20:16.886Z,15.98
2023-05-22T02:22:47.765Z,15.88
2023-05-22T02:25:19.138Z,17.02
2023-05-22T02:27:50.753Z,16.25
2023-05-22T02:30:20.793Z,17.30
2023-05-22T02:32:53.345Z,16.20
2023-05-22T02:35:23.296Z,18.13
2023-05-22T02:37:53.182Z,17.10
2023-05-22T02:40:23.117Z,17.85
2023-05-22T02:42:52.983Z,17.52
2023-05-22T02:45:22.947Z,16.65
2023-05-22T02:47:55.629Z,16.83
2023-05-22T02:50:25.545Z,16.35
2023-05-22T02:52:55.559Z,17.10
2023-05-22T02:55:25.513Z,17.10
2023-05-22T02:57:55.404Z,16.80
2023-05-22T03:00:25.472Z,17.27
2023-05-22T03:02:57.992Z,16.83
2023-05-22T03:05:27.959Z,17.55
2023-05-22T03:07:58.199Z,17.23
2023-05-22T03:10:28.262Z,16.88
2023-05-22T03:12:58.238Z,17.17
2023-05-22T03:15:28.162Z,16.98
2023-05-22T03:18:00.750Z,16.73
2023-05-22T03:20:31.616Z,16.20
2023-05-22T03:23:04.260Z,16.50
2023-05-22T03:25:34.303Z,16.30
2023-05-22T03:28:04.201Z,16.65
2023-05-22T03:30:34.067Z,17.60
2023-05-22T03:33:06.610Z,16.42
2023-05-22T03:35:36.655Z,16.95
2023-05-22T03:38:06.509Z,17.00
2023-05-22T03:40:36.490Z,17.67
2023-05-22T03:43:06.661Z,17.60
2023-05-22T03:45:36.603Z,17.63
2023-05-22T03:48:10.809Z,16.60
2023-05-22T03:50:41.066Z,17.20
2023-05-22T03:53:11.393Z,17.20
2023-05-22T03:55:41.252Z,15.85
2023-05-22T03:58:11.218Z,16.05
2023-05-22T04:00:41.134Z,15.80
2023-05-22T04:03:14.557Z,16.52
2023-05-22T04:05:44.520Z,15.77
2023-05-22T04:08:14.473Z,16.27
2023-05-22T04:10:46.625Z,16.58
2023-05-22T04:13:16.864Z,16.00
2023-05-22T04:15:47.110Z,15.30
2023-05-22T04:18:19.661Z,15.30
2023-05-22T04:20:51.949Z,15.63
2023-05-22T04:23:22.787Z,15.45
2023-05-22T04:25:53.011Z,15.80
2023-05-22T04:28:23.996Z,14.60
2023-05-22T04:30:54.618Z,14.07
2023-05-22T04:33:29.072Z,14.48
2023-05-22T04:35:59.011Z,13.82
2023-05-22T04:38:28.967Z,14.07
2023-05-22T04:40:58.963Z,14.50
2023-05-22T04:43:29.989Z,13.75
2023-05-22T04:45:59.890Z,13.73
2023-05-22T04:48:32.398Z,13.65
2023-05-22T04:51:02.652Z,13.38
2023-05-22T04:53:33.593Z,13.05
2023-05-22T04:56:03.468Z,13.30
2023-05-22T04:58:33.473Z,13.05
2023-05-22T05:01:03.540Z,13.60
2023-05-22T05:03:36.871Z,14.00
2023-05-22T05:06:08.487Z,14.80
2023-05-22T05:08:38.365Z,13.80
2023-05-22T05:11:08.378Z,13.82
2023-05-22T05:13:39.260Z,13.93
2023-05-22T05:16:10.099Z,13.57
2023-05-22T05:18:43.016Z,13.93
2023-05-22T05:21:13.282Z,13.68
2023-05-22T05:23:43.193Z,13.98
2023-05-22T05:26:13.094Z,13.68
2023-05-22T05:28:43.121Z,14.18
2023-05-22T05:31:13.074Z,13.52
2023-05-22T05:33:45.634Z,13.23
2023-05-22T05:36:16.399Z,15.02
2023-05-22T05:38:46.273Z,14.55
2023-05-22T05:41:16.149Z,13.68
2023-05-22T05:43:46.023Z,13.48
2023-05-22T05:46:16.184Z,13.60
2023-05-22T05:48:48.863Z,13.45
2023-05-22T05:51:18.875Z,13.45
2023-05-22T05:53:48.869Z,12.82
2023-05-22T05:56:18.746Z,13.90
2023-05-22T05:58:48.596Z,13.85
2023-05-22T06:01:19.083Z,12.90
2023-05-22T06:03:51.715Z,13.40
2023-05-22T06:06:21.879Z,12.68
2023-05-22T06:08:51.915Z,13.18
2023-05-22T06:11:22.132Z,13.00
2023-05-22T06:13:52.259Z,12.80
2023-05-22T06:16:22.234Z,12.70
2023-05-22T06:18:57.211Z,13.38
2023-05-22T06:21:27.412Z,12.70
2023-05-22T06:23:57.475Z,13.27
2023-05-22T06:26:27.893Z,13.20
2023-05-22T06:28:57.838Z,13.65
2023-05-22T06:31:28.260Z,14.13
2023-05-22T06:34:00.964Z,13.02
2023-05-22T06:36:30.915Z,12.38
2023-05-22T06:39:00.794Z,13.38
2023-05-22T06:41:30.812Z,13.23
2023-05-22T06:44:02.172Z,12.77
2023-05-22T06:46:32.101Z,12.13
2023-05-22T06:49:05.172Z,12.93
2023-05-22T06:51:35.090Z,12.13
2023-05-22T06:54:07.324Z,12.43
2023-05-22T06:56:37.398Z,12.18
2023-05-22T06:59:07.315Z,11.68
2023-05-22T07:01:37.354Z,12.02
2023-05-22T07:04:12.027Z,11.35
2023-05-22T07:06:42.103Z,9.98
2023-05-22T07:09:14.007Z,9.65
2023-05-22T07:11:44.359Z,10.50
2023-05-22T07:14:15.303Z,9.90
2023-05-22T07:16:45.657Z,9.93
2023-05-22T07:19:19.453Z,10.05
2023-05-22T07:21:49.423Z,10.55
2023-05-22T07:24:19.332Z,11.00
2023-05-22T07:26:49.658Z,11.63
2023-05-22T07:29:21.313Z,11.85
2023-05-22T07:31:53.015Z,11.35
2023-05-22T07:34:31.964Z,11.80
2023-05-22T07:37:01.975Z,11.98
2023-05-22T07:39:32.076Z,11.25
2023-05-22T07:42:03.125Z,11.82
2023-05-22T07:44:33.717Z,11.25
2023-05-22T07:47:03.947Z,9.77
2023-05-22T07:49:36.498Z,10.45
2023-05-22T07:52:06.523Z,9.95
2023-05-22T07:54:36.450Z,9.68
2023-05-22T07:57:08.262Z,8.85
2023-05-22T07:59:38.556Z,7.93
2023-05-22T08:02:10.123Z,9.32
2023-05-22T08:04:42.697Z,8.90
2023-05-22T08:07:12.934Z,9.10
2023-05-22T08:09:46.192Z,9.20
2023-05-22T08:12:16.096Z,8.37
2023-05-22T08:14:46.183Z,8.45
2023-05-22T08:17:16.354Z,9.23
2023-05-22T08:19:49.074Z,9.27
2023-05-22T08:22:19.111Z,8.35
2023-05-22T08:24:49.099Z,8.27
2023-05-22T08:27:19.070Z,8.20
2023-05-22T08:29:49.320Z,8.70
2023-05-22T08:32:19.351Z,9.32
2023-05-22T08:34:51.820Z,9.07
2023-05-22T08:37:21.686Z,8.88
2023-05-22T08:39:51.642Z,8.98
2023-05-22T08:42:24.631Z,9.15
2023-05-22T08:44:55.538Z,9.00
2023-05-22T08:47:28.557Z,8.90
2023-05-22T08:50:02.963Z,8.95
2023-05-22T08:52:37.592Z,9.57
2023-05-22T08:55:09.229Z,10.15
2023-05-22T08:57:39.999Z,9.93
2023-05-22T09:00:11.949Z,9.18
2023-05-22T09:02:42.324Z,10.50
2023-05-22T09:05:15.602Z,9.32
2023-05-22T09:07:46.076Z,9.67
2023-05-22T09:10:16.177Z,10.20
2023-05-22T09:13:04.479Z,9.80
2023-05-22T09:15:35.151Z,9.95
2023-05-22T09:18:06.844Z,10.52
2023-05-22T09:20:42.589Z,9.93
2023-05-22T09:23:18.018Z,9.55
2023-05-22T09:25:48.206Z,10.43
2023-05-22T09:28:18.147Z,9.40
2023-05-22T09:30:52.276Z,9.43
2023-05-22T09:33:23.035Z,10.20
2023-05-22T09:35:56.688Z,9.27
2023-05-22T09:38:30.351Z,10.30
2023-05-22T09:41:00.566Z,9.65
2023-05-22T09:43:30.442Z,10.02
2023-05-22T09:46:04.403Z,10.07
2023-05-22T09:48:37.911Z,9.60
2023-05-22T09:51:11.300Z,10.13
2023-05-22T09:53:45.534Z,11.10
2023-05-22T09:56:27.059Z,9.23
2023-05-22T09:59:05.189Z,8.90
2023-05-22T10:01:36.131Z,9.43
2023-05-22T10:04:07.920Z,10.23
2023-05-22T10:06:41.298Z,9.10
2023-05-22T10:09:19.243Z,9.57
2023-05-22T10:11:50.301Z,9.80
2023-05-22T10:14:20.570Z,9.52
2023-05-22T10:16:51.596Z,9.25
2023-05-22T10:19:21.645Z,10.15
2023-05-22T10:21:54.610Z,9.88
2023-05-22T10:24:25.396Z,10.00
2023-05-22T10:26:57.104Z,10.00
2023-05-22T10:29:32.249Z,9.57
2023-05-22T10:32:08.155Z,10.38
2023-05-22T10:34:50.121Z,10.45
2023-05-22T10:37:40.286Z,8.98
2023-05-22T10:40:13.489Z,9.48
2023-05-22T10:42:43.575Z,10.23
2023-05-22T10:45:13.999Z,9.52
2023-05-22T10:47:45.196Z,9.27
2023-05-22T10:50:15.581Z,9.15
2023-05-22T10:52:48.181Z,9.02
2023-05-22T10:55:18.161Z,9.30
2023-05-22T10:57:48.570Z,9.75
2023-05-22T11:00:21.235Z,9.07
2023-05-22T11:02:51.394Z,9.20
2023-05-22T11:05:37.272Z,9.90
2023-05-22T11:08:37.287Z,8.95
2023-05-22T11:11:17.046Z,9.40
2023-05-22T11:13:47.046Z,8.35
2023-05-22T11:16:19.137Z,9.38
2023-05-22T11:18:49.270Z,9.48
2023-05-22T11:21:19.291Z,9.15
2023-05-22T11:23:49.992Z,9.98
2023-05-22T11:26:28.084Z,9.52
2023-05-22T11:28:58.966Z,9.45
2023-05-22T11:31:29.072Z,10.02
2023-05-22T11:33:59.021Z,9.10
2023-05-22T11:36:31.806Z,9.43
2023-05-22T11:39:02.569Z,8.98
2023-05-22T11:41:39.541Z,9.45
2023-05-22T11:44:11.792Z,10.15
2023-05-22T11:46:42.530Z,10.63
2023-05-22T11:49:13.381Z,9.73
2023-05-22T11:51:43.761Z,9.80
2023-05-22T11:54:13.995Z,9.75
2023-05-22T11:56:46.832Z,9.25
2023-05-22T11:59:16.946Z,9.95
2023-05-22T12:01:46.894Z,9.93
2023-05-22T12:04:17.307Z,9.82
2023-05-22T12:06:47.560Z,9.85
2023-05-22T12:09:17.626Z,12.00
2023-05-22T12:11:51.095Z,9.90
2023-05-22T12:14:21.290Z,9.73
2023-05-22T12:16:55.093Z,10.60
2023-05-22T12:21:55.762Z,9.82
2023-05-22T12:24:26.300Z,9.25
2023-05-22T12:26:59.688Z,10.27
2023-05-22T12:29:30.443Z,9.75
2023-05-22T12:32:05.236Z,9.85
2023-05-22T12:34:36.805Z,10.00
2023-05-22T12:37:06.861Z,10.60
2023-05-22T12:39:36.746Z,10.02
2023-05-22T12:42:10.137Z,10.13
2023-05-22T12:44:42.112Z,9.93
2023-05-22T12:47:12.279Z,10.70
2023-05-22T12:49:42.569Z,9.93
2023-05-22T12:52:13.318Z,10.00
2023-05-22T12:54:43.535Z,9.30
2023-05-22T12:57:17.132Z,8.88
2023-05-22T12:59:47.495Z,9.43
2023-05-22T13:02:18.456Z,8.60
2023-05-22T13:04:48.355Z,8.50
2023-05-22T13:07:18.269Z,8.80
2023-05-22T13:09:48.171Z,8.45
2023-05-22T13:12:20.691Z,9.10
2023-05-22T13:14:50.668Z,8.60
2023-05-22T13:17:21.006Z,8.52
2023-05-22T13:19:51.448Z,8.75
2023-05-22T13:22:21.592Z,8.70
2023-05-22T13:24:51.810Z,8.55
2023-05-22T13:27:24.969Z,8.07
2023-05-22T13:29:54.869Z,8.80
2023-05-22T13:32:24.922Z,7.95
2023-05-22T13:34:55.013Z,8.32
2023-05-22T13:37:25.165Z,7.88
2023-05-22T13:39:55.719Z,7.70
2023-05-22T13:42:32.075Z,8.13
2023-05-22T13:45:02.630Z,7.60
2023-05-22T13:47:33.277Z,8.05
2023-05-22T13:50:03.327Z,8.57
2023-05-22T13:52:34.276Z,8.00
2023-05-22T13:55:04.214Z,8.15
2023-05-22T13:57:40.575Z,8.82
2023-05-22T14:00:12.073Z,8.57
2023-05-22T14:02:42.046Z,9.10
2023-05-22T14:05:12.640Z,8.85
2023-05-22T14:07:42.591Z,9.27
2023-05-22T14:10:13.530Z,8.45
2023-05-22T14:12:46.367Z,8.48
2023-05-22T14:15:16.299Z,8.40
2023-05-22T14:17:46.256Z,7.85
2023-05-22T14:20:16.535Z,8.45
2023-05-22T14:22:57.206Z,8.48
2023-05-22T14:25:28.276Z,9.07
2023-05-22T14:28:00.842Z,8.40
2023-05-22T14:30:31.080Z,8.45
2023-05-22T14:33:01.038Z,8.40
2023-05-22T14:35:31.158Z,8.63
2023-05-22T14:38:01.231Z,8.43
2023-05-22T14:40:31.270Z,8.40
2023-05-22T14:43:03.785Z,8.40
2023-05-22T14:45:33.922Z,8.75
2023-05-22T14:48:04.878Z,8.70
2023-05-22T14:50:35.134Z,8.80
2023-05-22T14:53:05.026Z,8.88
2023-05-22T14:55:35.102Z,9.32
2023-05-22T14:58:07.574Z,8.90
2023-05-22T15:00:37.533Z,9.40
2023-05-22T15:03:07.515Z,8.98
2023-05-22T15:05:37.627Z,9.52
2023-05-22T15:08:07.569Z,9.52
2023-05-22T15:10:37.450Z,9.35
2023-05-22T15:13:11.020Z,9.25
2023-05-22T15:15:41.193Z,9.40
2023-05-22T15:18:12.412Z,10.48
2023-05-22T15:20:42.921Z,10.30
2023-05-22T15:23:12.818Z,9.20
2023-05-22T15:25:43.666Z,9.27
2023-05-22T15:28:16.480Z,9.32
2023-05-22T15:30:46.393Z,9.25
2023-05-22T15:33:16.521Z,9.30
2023-05-22T15:35:47.352Z,8.50
2023-05-22T15:38:17.464Z,8.52
2023-05-22T15:40:47.556Z,8.88
2023-05-22T15:43:20.214Z,8.48
2023-05-22T15:45:51.137Z,9.73
2023-05-22T15:48:21.233Z,9.15
2023-05-22T15:50:51.187Z,9.10
2023-05-22T15:53:22.129Z,9.27
2023-05-22T15:55:52.973Z,8.85
2023-05-22T15:58:31.540Z,8.60
2023-05-22T16:01:01.866Z,8.70
2023-05-22T16:03:31.972Z,9.60
2023-05-22T16:06:02.055Z,8.45
2023-05-22T16:08:31.988Z,8.73
2023-05-22T16:11:01.979Z,8.73
2023-05-22T16:13:34.582Z,8.38
2023-05-22T16:16:06.069Z,8.57
2023-05-22T16:18:36.125Z,8.75
2023-05-22T16:21:06.484Z,9.93
2023-05-22T16:23:36.365Z,8.77
2023-05-22T16:26:06.412Z,23.83
2023-05-22T16:28:39.044Z,12.48
2023-05-22T16:31:08.958Z,15.50
2023-05-22T16:33:38.920Z,29.40
2023-05-22T16:36:09.645Z,8.60
2023-05-22T16:38:39.585Z,6.82
2023-05-22T16:41:09.466Z,9.63
2023-05-22T16:43:42.241Z,8.43
2023-05-22T16:46:12.204Z,7.45
2023-05-22T16:48:42.155Z,7.38
2023-05-22T16:51:12.313Z,6.50
2023-05-22T16:53:43.605Z,6.97
2023-05-22T16:56:14.122Z,6.20
2023-05-22T16:58:46.578Z,7.18
2023-05-22T17:01:16.591Z,6.68
2023-05-22T17:03:46.913Z,6.25
2023-05-22T17:06:20.164Z,6.30
2023-05-22T17:11:20.735Z,6.13
2023-05-22T17:13:53.275Z,5.65
2023-05-22T17:16:23.252Z,6.32
2023-05-22T17:18:54.975Z,6.63
2023-05-22T17:21:25.357Z,6.38
2023-05-22T17:23:55.294Z,6.47
2023-05-22T17:26:25.219Z,5.78
2023-05-22T17:28:57.646Z,5.63
2023-05-22T17:31:27.625Z,5.78
2023-05-22T17:33:58.100Z,5.82
2023-05-22T17:36:28.070Z,5.57
2023-05-22T17:38:57.974Z,6.00
2023-05-22T17:41:27.947Z,6.20
2023-05-22T17:44:01.463Z,6.03
2023-05-22T17:46:31.427Z,6.40
2023-05-22T17:49:01.514Z,7.45
2023-05-22T17:51:32.419Z,7.45
2023-05-22T17:54:02.420Z,7.95
2023-05-22T17:56:32.377Z,8.45
2023-05-22T17:59:04.903Z,8.73
2023-05-22T18:01:34.896Z,8.18
2023-05-22T18:04:05.170Z,8.38
2023-05-22T18:06:35.234Z,9.27
2023-05-22T18:09:07.777Z,8.13
2023-05-22T18:11:37.793Z,9.23
2023-05-22T18:14:10.338Z,8.70
2023-05-22T18:16:40.358Z,8.52
2023-05-22T18:19:10.349Z,8.02
2023-05-22T18:21:40.736Z,8.45
2023-05-22T18:24:11.146Z,8.30
2023-05-22T18:26:41.155Z,9.00
2023-05-22T18:29:13.662Z,8.73
2023-05-22T18:31:43.828Z,8.63
2023-05-22T18:34:13.754Z,8.98
2023-05-22T18:36:43.829Z,7.85
2023-05-22T18:39:13.741Z,8.75
2023-05-22T18:41:43.658Z,8.75
2023-05-22T18:44:16.340Z,8.98
2023-05-22T18:46:46.258Z,9.07
2023-05-22T18:49:16.247Z,9.68
2023-05-22T18:51:46.443Z,9.32
2023-05-22T18:54:16.366Z,9.13
2023-05-22T18:56:46.434Z,9.15
2023-05-22T18:59:18.909Z,9.45
2023-05-22T19:01:48.874Z,8.82
2023-05-22T19:04:21.222Z,8.90
2023-05-22T19:06:53.846Z,9.02
2023-05-22T19:09:23.743Z,9.95
2023-05-22T19:11:53.705Z,9.32
2023-05-22T19:14:26.255Z,9.48
2023-05-22T19:16:56.380Z,8.98
2023-05-22T19:19:26.380Z,9.50
2023-05-22T19:21:56.505Z,9.02
2023-05-22T19:24:26.396Z,8.57
2023-05-22T19:26:56.406Z,9.77
2023-05-22T19:29:28.917Z,9.07
2023-05-22T19:31:58.909Z,9.75
2023-05-22T19:34:28.766Z,9.27
2023-05-22T19:36:58.706Z,9.07
2023-05-22T19:39:28.558Z,9.40
2023-05-22T19:41:58.475Z,9.77
2023-05-22T19:44:31.106Z,9.68
2023-05-22T19:47:01.005Z,9.68
2023-05-22T19:49:31.762Z,9.48
2023-05-22T19:52:02.251Z,9.85
2023-05-22T19:54:32.157Z,9.23
2023-05-22T19:57:02.056Z,9.60
2023-05-22T19:59:36.664Z,8.88
2023-05-22T20:02:07.143Z,9.95
2023-05-22T20:04:38.079Z,9.80
2023-05-22T20:07:08.256Z,9.60
2023-05-22T20:09:38.169Z,10.05
2023-05-22T20:12:10.528Z,9.10
2023-05-22T20:14:43.152Z,9.10
2023-05-22T20:17:13.102Z,9.23
2023-05-22T20:19:45.331Z,9.65
2023-05-22T20:22:15.522Z,9.85
2023-05-22T20:24:45.433Z,9.38
2023-05-22T20:27:15.475Z,9.20
2023-05-22T20:29:50.005Z,9.13
2023-05-22T20:32:19.913Z,8.38
2023-05-22T20:34:52.440Z,9.57
2023-05-22T20:37:22.382Z,8.93
2023-05-22T20:39:52.813Z,8.98
2023-05-22T20:42:23.008Z,8.55
2023-05-22T20:44:55.548Z,8.80
2023-05-22T20:47:25.560Z,8.77
2023-05-22T20:49:55.481Z,8.55
2023-05-22T20:52:25.748Z,8.20
2023-05-22T20:54:56.459Z,8.43
2023-05-22T20:57:26.602Z,8.30
2023-05-22T20:59:59.524Z,8.63
2023-05-22T21:02:29.456Z,8.18
2023-05-22T21:04:59.368Z,8.32
2023-05-22T21:07:29.303Z,8.32
2023-05-22T21:09:59.284Z,8.75
2023-05-22T21:12:31.060Z,9.85
2023-05-22T21:15:03.607Z,8.30
2023-05-22T21:17:34.576Z,8.93
2023-05-22T21:20:04.683Z,8.32
2023-05-22T21:22:34.773Z,8.50
2023-05-22T21:25:04.769Z,8.57
2023-05-22T21:27:34.706Z,8.00
2023-05-22T21:30:07.708Z,8.35
2023-05-22T21:32:37.715Z,8.48
2023-05-22T21:35:08.449Z,9.18
2023-05-22T21:37:40.030Z,8.98
2023-05-22T21:40:11.656Z,8.50
2023-05-22T21:42:46.921Z,8.90
2023-05-22T21:45:19.739Z,8.57
2023-05-22T21:47:49.747Z,9.18
2023-05-22T21:50:19.938Z,9.20
2023-05-22T21:52:49.810Z,9.38
2023-05-22T21:55:19.799Z,9.35
2023-05-22T21:57:49.706Z,9.40
2023-05-22T22:00:22.938Z,9.80
2023-05-22T22:02:52.965Z,9.70
2023-05-22T22:05:24.512Z,10.20
2023-05-22T22:07:54.383Z,10.27
2023-05-22T22:10:24.263Z,10.25
2023-05-22T22:12:54.139Z,10.70
2023-05-22T22:15:26.878Z,10.40
2023-05-22T22:17:59.545Z,10.75
2023-05-22T22:20:43.256Z,11.05
2023-05-22T22:23:15.062Z,10.48
2023-05-22T22:25:44.984Z,10.38
2023-05-22T22:28:14.933Z,10.90
2023-05-22T22:30:48.004Z,10.55
2023-05-22T22:33:18.082Z,10.82
2023-05-22T22:35:48.191Z,10.75
2023-05-22T22:38:18.176Z,10.38
2023-05-22T22:40:50.610Z,10.00
2023-05-22T22:43:20.519Z,11.00
2023-05-22T22:45:53.125Z,10.57
2023-05-22T22:48:23.585Z,12.65
2023-05-22T22:50:53.562Z,12.75
2023-05-22T22:53:23.434Z,13.45
2023-05-22T22:55:59.313Z,13.18
2023-05-22T22:58:29.254Z,13.87
2023-05-22T23:01:01.798Z,13.27
2023-05-22T23:03:31.712Z,13.48
2023-05-22T23:06:01.587Z,14.20
2023-05-22T23:08:31.473Z,13.52
2023-05-22T23:11:01.403Z,14.23
2023-05-22T23:13:31.455Z,13.50
2023-05-22T23:16:04.096Z,14.68
2023-05-22T23:18:33.957Z,14.68
2023-05-22T23:21:04.030Z,15.93
2023-05-22T23:23:34.007Z,16.20
2023-05-22T23:26:04.104Z,16.77
2023-05-22T23:28:33.977Z,18.48
2023-05-22T23:31:07.430Z,19.70
2023-05-22T23:33:37.386Z,19.50
2023-05-22T23:36:07.419Z,22.48
2023-05-22T23:38:37.428Z,24.50
2023-05-22T23:41:07.372Z,22.50
2023-05-22T23:43:37.277Z,22.33
2023-05-22T23:46:09.805Z,20.83
2023-05-22T23:48:39.735Z,20.50
2023-05-22T23:51:14.334Z,19.92
2023-05-22T23:53:45.289Z,21.45
2023-05-22T23:56:15.278Z,20.60
2023-05-22T23:58:45.137Z,23.20
